sensor_id;sensor_type;location;lat;lon;timestamp;P1;durP1;ratioP1;P2;durP2;ratioP2
21168;SDS011;10742;51.816;8.662;2022-09-09T00:04:50;1999.90;;;661.57;;
21168;SDS011;10742;51.816;8.662;2022-09-09T00:08:25;1999.90;;;704.80;;
21168;SDS011;10742;51.816;8.662;2022-09-09T00:12:13;1999.90;;;705.50;;
21168;SDS011;10742;51.816;8.662;2022-09-09T00:19:41;1999.90;;;732.07;;
21168;SDS011;10742;51.816;8.662;2022-09-09T00:26:51;1999.90;;;740.03;;
21168;SDS011;10742;51.816;8.662;2022-09-09T00:30:22;1999.90;;;951.00;;
21168;SDS011;10742;51.816;8.662;2022-09-09T00:33:45;1999.90;;;815.27;;
21168;SDS011;10742;51.816;8.662;2022-09-09T00:37:08;1999.90;;;824.03;;
21168;SDS011;10742;51.816;8.662;2022-09-09T00:40:34;1999.90;;;831.20;;
21168;SDS011;10742;51.816;8.662;2022-09-09T00:51:15;1999.90;;;937.77;;
21168;SDS011;10742;51.816;8.662;2022-09-09T00:58:35;1999.90;;;956.23;;
21168;SDS011;10742;51.816;8.662;2022-09-09T01:01:56;1999.90;;;875.90;;
21168;SDS011;10742;51.816;8.662;2022-09-09T01:05:20;1999.90;;;825.07;;
21168;SDS011;10742;51.816;8.662;2022-09-09T01:12:42;1999.90;;;810.00;;
21168;SDS011;10742;51.816;8.662;2022-09-09T01:16:11;1999.90;;;738.80;;
21168;SDS011;10742;51.816;8.662;2022-09-09T01:28:05;1999.90;;;776.53;;
21168;SDS011;10742;51.816;8.662;2022-09-09T01:31:34;1999.90;;;645.37;;
21168;SDS011;10742;51.816;8.662;2022-09-09T01:34:59;1999.90;;;632.43;;
21168;SDS011;10742;51.816;8.662;2022-09-09T01:38:22;1999.90;;;750.53;;
21168;SDS011;10742;51.816;8.662;2022-09-09T01:41:46;1999.90;;;879.13;;
21168;SDS011;10742;51.816;8.662;2022-09-09T01:45:10;1999.90;;;740.10;;
21168;SDS011;10742;51.816;8.662;2022-09-09T01:48:32;1999.90;;;944.07;;
21168;SDS011;10742;51.816;8.662;2022-09-09T01:52:08;1999.90;;;952.63;;
21168;SDS011;10742;51.816;8.662;2022-09-09T01:55:32;1999.90;;;882.07;;
21168;SDS011;10742;51.816;8.662;2022-09-09T01:59:03;1999.90;;;879.20;;
21168;SDS011;10742;51.816;8.662;2022-09-09T02:02:32;1999.90;;;795.23;;
21168;SDS011;10742;51.816;8.662;2022-09-09T02:06:15;1999.90;;;636.83;;
21168;SDS011;10742;51.816;8.662;2022-09-09T02:13:47;1999.90;;;633.27;;
21168;SDS011;10742;51.816;8.662;2022-09-09T02:17:11;1999.90;;;623.13;;
21168;SDS011;10742;51.816;8.662;2022-09-09T02:21:01;1999.90;;;659.33;;
21168;SDS011;10742;51.816;8.662;2022-09-09T02:24:23;1999.90;;;743.47;;
21168;SDS011;10742;51.816;8.662;2022-09-09T02:27:58;1999.90;;;797.40;;
21168;SDS011;10742;51.816;8.662;2022-09-09T02:31:21;1999.90;;;867.27;;
21168;SDS011;10742;51.816;8.662;2022-09-09T02:34:55;1999.90;;;900.03;;
21168;SDS011;10742;51.816;8.662;2022-09-09T02:38:21;1999.90;;;899.67;;
21168;SDS011;10742;51.816;8.662;2022-09-09T02:41:52;1999.90;;;970.70;;
21168;SDS011;10742;51.816;8.662;2022-09-09T02:45:23;1999.90;;;988.47;;
21168;SDS011;10742;51.816;8.662;2022-09-09T02:48:56;1999.90;;;999.90;;
21168;SDS011;10742;51.816;8.662;2022-09-09T02:52:27;1999.90;;;955.70;;
21168;SDS011;10742;51.816;8.662;2022-09-09T02:59:42;1999.90;;;990.60;;
21168;SDS011;10742;51.816;8.662;2022-09-09T03:03:06;1999.90;;;999.90;;
21168;SDS011;10742;51.816;8.662;2022-09-09T03:06:29;1999.90;;;999.90;;
21168;SDS011;10742;51.816;8.662;2022-09-09T03:10:00;1999.90;;;999.90;;
21168;SDS011;10742;51.816;8.662;2022-09-09T03:13:22;1999.90;;;999.90;;
21168;SDS011;10742;51.816;8.662;2022-09-09T03:16:43;1999.90;;;999.90;;
21168;SDS011;10742;51.816;8.662;2022-09-09T03:20:05;1999.90;;;999.90;;
21168;SDS011;10742;51.816;8.662;2022-09-09T03:23:26;1999.90;;;999.90;;
21168;SDS011;10742;51.816;8.662;2022-09-09T03:26:47;1999.90;;;999.90;;
21168;SDS011;10742;51.816;8.662;2022-09-09T03:30:10;1999.90;;;999.90;;
21168;SDS011;10742;51.816;8.662;2022-09-09T03:33:33;1999.90;;;999.90;;
21168;SDS011;10742;51.816;8.662;2022-09-09T03:36:57;1999.90;;;999.90;;
21168;SDS011;10742;51.816;8.662;2022-09-09T03:40:20;1999.90;;;999.90;;
21168;SDS011;10742;51.816;8.662;2022-09-09T03:43:41;1999.90;;;999.90;;
21168;SDS011;10742;51.816;8.662;2022-09-09T03:47:03;1999.90;;;999.90;;
21168;SDS011;10742;51.816;8.662;2022-09-09T03:50:24;1999.90;;;999.90;;
21168;SDS011;10742;51.816;8.662;2022-09-09T03:53:45;1999.90;;;999.90;;
21168;SDS011;10742;51.816;8.662;2022-09-09T03:57:08;1999.90;;;999.90;;
21168;SDS011;10742;51.816;8.662;2022-09-09T04:00:30;1999.90;;;999.90;;
21168;SDS011;10742;51.816;8.662;2022-09-09T04:03:51;1999.90;;;999.90;;
21168;SDS011;10742;51.816;8.662;2022-09-09T04:07:13;1999.90;;;999.90;;
21168;SDS011;10742;51.816;8.662;2022-09-09T04:10:34;1999.90;;;999.90;;
21168;SDS011;10742;51.816;8.662;2022-09-09T04:13:58;1999.90;;;999.90;;
21168;SDS011;10742;51.816;8.662;2022-09-09T04:17:21;1999.90;;;999.90;;
21168;SDS011;10742;51.816;8.662;2022-09-09T04:20:42;1999.90;;;999.90;;
21168;SDS011;10742;51.816;8.662;2022-09-09T04:24:04;1999.90;;;999.90;;
21168;SDS011;10742;51.816;8.662;2022-09-09T04:27:26;1999.90;;;999.90;;
21168;SDS011;10742;51.816;8.662;2022-09-09T04:30:47;1999.90;;;999.90;;
21168;SDS011;10742;51.816;8.662;2022-09-09T04:34:09;1999.90;;;999.90;;
21168;SDS011;10742;51.816;8.662;2022-09-09T04:37:30;1999.90;;;999.90;;
21168;SDS011;10742;51.816;8.662;2022-09-09T04:40:52;1999.90;;;999.90;;
21168;SDS011;10742;51.816;8.662;2022-09-09T04:44:15;1999.90;;;999.90;;
21168;SDS011;10742;51.816;8.662;2022-09-09T04:47:37;1999.90;;;999.90;;
21168;SDS011;10742;51.816;8.662;2022-09-09T04:50:59;1999.90;;;999.90;;
21168;SDS011;10742;51.816;8.662;2022-09-09T04:54:24;1999.90;;;999.90;;
21168;SDS011;10742;51.816;8.662;2022-09-09T04:57:46;1999.90;;;999.90;;
21168;SDS011;10742;51.816;8.662;2022-09-09T05:01:08;1999.90;;;999.90;;
21168;SDS011;10742;51.816;8.662;2022-09-09T05:04:31;1999.90;;;999.90;;
21168;SDS011;10742;51.816;8.662;2022-09-09T05:07:53;1999.90;;;999.90;;
21168;SDS011;10742;51.816;8.662;2022-09-09T05:14:45;1999.90;;;999.90;;
21168;SDS011;10742;51.816;8.662;2022-09-09T05:18:07;1999.90;;;999.90;;
21168;SDS011;10742;51.816;8.662;2022-09-09T05:21:28;1999.90;;;999.90;;
21168;SDS011;10742;51.816;8.662;2022-09-09T05:24:51;1999.90;;;999.90;;
21168;SDS011;10742;51.816;8.662;2022-09-09T05:28:12;1999.90;;;999.90;;
21168;SDS011;10742;51.816;8.662;2022-09-09T05:31:34;1999.90;;;999.90;;
21168;SDS011;10742;51.816;8.662;2022-09-09T05:35:00;1999.90;;;999.90;;
21168;SDS011;10742;51.816;8.662;2022-09-09T05:38:21;1999.90;;;999.90;;
21168;SDS011;10742;51.816;8.662;2022-09-09T05:41:48;1999.90;;;999.90;;
21168;SDS011;10742;51.816;8.662;2022-09-09T05:45:09;1999.90;;;999.90;;
21168;SDS011;10742;51.816;8.662;2022-09-09T05:48:32;1999.90;;;999.90;;
21168;SDS011;10742;51.816;8.662;2022-09-09T05:51:55;1999.90;;;999.90;;
21168;SDS011;10742;51.816;8.662;2022-09-09T05:55:17;1999.90;;;999.90;;
21168;SDS011;10742;51.816;8.662;2022-09-09T05:58:38;1999.90;;;999.90;;
21168;SDS011;10742;51.816;8.662;2022-09-09T06:02:01;1999.90;;;999.90;;
21168;SDS011;10742;51.816;8.662;2022-09-09T06:05:27;1999.90;;;999.90;;
21168;SDS011;10742;51.816;8.662;2022-09-09T06:08:53;1999.90;;;999.90;;
21168;SDS011;10742;51.816;8.662;2022-09-09T06:12:23;1999.90;;;999.90;;
21168;SDS011;10742;51.816;8.662;2022-09-09T06:15:50;1999.90;;;999.90;;
21168;SDS011;10742;51.816;8.662;2022-09-09T06:19:12;1999.90;;;999.90;;
21168;SDS011;10742;51.816;8.662;2022-09-09T06:22:35;1999.90;;;999.90;;
21168;SDS011;10742;51.816;8.662;2022-09-09T06:26:03;1999.90;;;999.90;;
21168;SDS011;10742;51.816;8.662;2022-09-09T06:29:29;1999.90;;;999.90;;
21168;SDS011;10742;51.816;8.662;2022-09-09T06:32:51;1999.90;;;999.90;;
21168;SDS011;10742;51.816;8.662;2022-09-09T06:36:13;1999.90;;;999.90;;
21168;SDS011;10742;51.816;8.662;2022-09-09T06:39:36;1999.90;;;999.90;;
21168;SDS011;10742;51.816;8.662;2022-09-09T06:43:01;1999.90;;;999.90;;
21168;SDS011;10742;51.816;8.662;2022-09-09T06:46:31;1999.90;;;999.90;;
21168;SDS011;10742;51.816;8.662;2022-09-09T06:49:54;1999.90;;;999.90;;
21168;SDS011;10742;51.816;8.662;2022-09-09T06:53:16;1999.90;;;999.90;;
21168;SDS011;10742;51.816;8.662;2022-09-09T06:56:40;1999.90;;;999.90;;
21168;SDS011;10742;51.816;8.662;2022-09-09T07:00:10;1999.90;;;999.90;;
21168;SDS011;10742;51.816;8.662;2022-09-09T07:03:33;1999.90;;;999.90;;
21168;SDS011;10742;51.816;8.662;2022-09-09T07:06:54;1999.90;;;999.90;;
21168;SDS011;10742;51.816;8.662;2022-09-09T07:10:18;1999.90;;;999.90;;
21168;SDS011;10742;51.816;8.662;2022-09-09T07:13:39;1999.90;;;999.90;;
21168;SDS011;10742;51.816;8.662;2022-09-09T07:17:01;1999.90;;;999.90;;
21168;SDS011;10742;51.816;8.662;2022-09-09T07:20:28;1999.90;;;999.90;;
21168;SDS011;10742;51.816;8.662;2022-09-09T07:23:50;1999.90;;;999.90;;
21168;SDS011;10742;51.816;8.662;2022-09-09T07:27:12;1999.90;;;999.90;;
21168;SDS011;10742;51.816;8.662;2022-09-09T07:30:34;1999.90;;;999.90;;
21168;SDS011;10742;51.816;8.662;2022-09-09T07:33:55;1999.90;;;999.90;;
21168;SDS011;10742;51.816;8.662;2022-09-09T07:37:16;1999.90;;;999.90;;
21168;SDS011;10742;51.816;8.662;2022-09-09T07:40:39;1999.90;;;999.90;;
21168;SDS011;10742;51.816;8.662;2022-09-09T07:44:05;1999.90;;;999.90;;
21168;SDS011;10742;51.816;8.662;2022-09-09T07:47:32;1999.90;;;999.90;;
21168;SDS011;10742;51.816;8.662;2022-09-09T07:54:27;1999.90;;;999.90;;
21168;SDS011;10742;51.816;8.662;2022-09-09T07:57:48;1999.90;;;999.90;;
21168;SDS011;10742;51.816;8.662;2022-09-09T08:01:11;1999.90;;;999.90;;
21168;SDS011;10742;51.816;8.662;2022-09-09T08:04:38;1999.90;;;999.90;;
21168;SDS011;10742;51.816;8.662;2022-09-09T08:07:59;1999.90;;;999.90;;
21168;SDS011;10742;51.816;8.662;2022-09-09T08:11:22;1999.90;;;973.42;;
21168;SDS011;10742;51.816;8.662;2022-09-09T08:14:45;1999.90;;;954.22;;
21168;SDS011;10742;51.816;8.662;2022-09-09T08:18:05;1999.90;;;817.85;;
21168;SDS011;10742;51.816;8.662;2022-09-09T08:21:28;1999.90;;;701.22;;
21168;SDS011;10742;51.816;8.662;2022-09-09T08:24:51;1331.93;;;439.92;;
21168;SDS011;10742;51.816;8.662;2022-09-09T08:28:13;830.90;;;304.23;;
21168;SDS011;10742;51.816;8.662;2022-09-09T08:31:35;745.40;;;292.00;;
21168;SDS011;10742;51.816;8.662;2022-09-09T08:34:59;420.17;;;185.70;;
21168;SDS011;10742;51.816;8.662;2022-09-09T08:38:22;658.60;;;261.60;;
21168;SDS011;10742;51.816;8.662;2022-09-09T08:45:37;337.05;;;152.27;;
21168;SDS011;10742;51.816;8.662;2022-09-09T08:49:15;568.55;;;234.55;;
21168;SDS011;10742;51.816;8.662;2022-09-09T08:56:21;716.60;;;277.38;;
21168;SDS011;10742;51.816;8.662;2022-09-09T08:59:50;529.33;;;216.32;;
21168;SDS011;10742;51.816;8.662;2022-09-09T09:03:15;590.97;;;214.30;;
21168;SDS011;10742;51.816;8.662;2022-09-09T09:07:01;148.48;;;67.53;;
21168;SDS011;10742;51.816;8.662;2022-09-09T09:10:48;108.97;;;47.35;;
21168;SDS011;10742;51.816;8.662;2022-09-09T09:14:21;35.05;;;22.35;;
21168;SDS011;10742;51.816;8.662;2022-09-09T09:17:55;45.60;;;24.65;;
21168;SDS011;10742;51.816;8.662;2022-09-09T09:21:20;16.58;;;10.38;;
21168;SDS011;10742;51.816;8.662;2022-09-09T09:24:56;11.45;;;5.68;;
21168;SDS011;10742;51.816;8.662;2022-09-09T09:28:35;8.35;;;5.28;;
21168;SDS011;10742;51.816;8.662;2022-09-09T09:32:04;192.35;;;74.18;;
21168;SDS011;10742;51.816;8.662;2022-09-09T09:35:27;665.22;;;215.60;;
21168;SDS011;10742;51.816;8.662;2022-09-09T09:38:53;225.98;;;86.65;;
21168;SDS011;10742;51.816;8.662;2022-09-09T09:46:41;19.38;;;14.15;;
21168;SDS011;10742;51.816;8.662;2022-09-09T09:50:16;9.07;;;5.55;;
21168;SDS011;10742;51.816;8.662;2022-09-09T09:53:38;12.13;;;4.80;;
21168;SDS011;10742;51.816;8.662;2022-09-09T09:57:12;7.10;;;4.90;;
21168;SDS011;10742;51.816;8.662;2022-09-09T10:00:38;7.43;;;5.13;;
21168;SDS011;10742;51.816;8.662;2022-09-09T10:04:15;7.25;;;5.00;;
21168;SDS011;10742;51.816;8.662;2022-09-09T10:07:46;7.63;;;4.45;;
21168;SDS011;10742;51.816;8.662;2022-09-09T10:14:33;8.43;;;3.88;;
21168;SDS011;10742;51.816;8.662;2022-09-09T10:28:30;5.50;;;2.65;;
21168;SDS011;10742;51.816;8.662;2022-09-09T10:32:15;2.90;;;2.33;;
21168;SDS011;10742;51.816;8.662;2022-09-09T10:35:52;6.82;;;2.20;;
21168;SDS011;10742;51.816;8.662;2022-09-09T10:43:00;5.93;;;2.30;;
21168;SDS011;10742;51.816;8.662;2022-09-09T10:46:53;6.82;;;2.28;;
21168;SDS011;10742;51.816;8.662;2022-09-09T10:50:25;4.97;;;2.40;;
21168;SDS011;10742;51.816;8.662;2022-09-09T10:58:05;4.32;;;2.15;;
21168;SDS011;10742;51.816;8.662;2022-09-09T11:09:19;6.22;;;2.20;;
21168;SDS011;10742;51.816;8.662;2022-09-09T11:12:44;5.97;;;2.38;;
21168;SDS011;10742;51.816;8.662;2022-09-09T11:19:40;9.20;;;1.80;;
21168;SDS011;10742;51.816;8.662;2022-09-09T11:23:04;5.60;;;1.98;;
21168;SDS011;10742;51.816;8.662;2022-09-09T11:26:38;5.10;;;1.65;;
21168;SDS011;10742;51.816;8.662;2022-09-09T11:30:14;4.78;;;1.52;;
21168;SDS011;10742;51.816;8.662;2022-09-09T11:37:30;8.75;;;1.80;;
21168;SDS011;10742;51.816;8.662;2022-09-09T11:41:02;10.27;;;2.40;;
21168;SDS011;10742;51.816;8.662;2022-09-09T11:44:28;4.57;;;1.33;;
21168;SDS011;10742;51.816;8.662;2022-09-09T11:47:51;9.45;;;1.75;;
21168;SDS011;10742;51.816;8.662;2022-09-09T11:54:48;4.78;;;1.60;;
21168;SDS011;10742;51.816;8.662;2022-09-09T12:05:07;4.57;;;1.83;;
21168;SDS011;10742;51.816;8.662;2022-09-09T12:08:30;2.15;;;1.50;;
21168;SDS011;10742;51.816;8.662;2022-09-09T12:11:51;4.80;;;1.30;;
21168;SDS011;10742;51.816;8.662;2022-09-09T12:15:17;3.92;;;1.60;;
21168;SDS011;10742;51.816;8.662;2022-09-09T12:18:41;2.00;;;1.52;;
21168;SDS011;10742;51.816;8.662;2022-09-09T12:22:11;4.53;;;1.65;;
21168;SDS011;10742;51.816;8.662;2022-09-09T12:33:11;5.03;;;1.48;;
21168;SDS011;10742;51.816;8.662;2022-09-09T12:36:33;4.55;;;1.33;;
21168;SDS011;10742;51.816;8.662;2022-09-09T12:39:59;4.72;;;1.27;;
21168;SDS011;10742;51.816;8.662;2022-09-09T12:43:24;5.15;;;1.33;;
21168;SDS011;10742;51.816;8.662;2022-09-09T12:46:46;4.28;;;1.30;;
21168;SDS011;10742;51.816;8.662;2022-09-09T12:50:43;4.88;;;1.35;;
21168;SDS011;10742;51.816;8.662;2022-09-09T12:53:58;5.10;;;1.20;;
21168;SDS011;10742;51.816;8.662;2022-09-09T12:57:21;5.22;;;1.42;;
21168;SDS011;10742;51.816;8.662;2022-09-09T13:00:49;6.53;;;1.48;;
21168;SDS011;10742;51.816;8.662;2022-09-09T13:04:19;3.53;;;1.65;;
21168;SDS011;10742;51.816;8.662;2022-09-09T13:07:42;4.00;;;1.50;;
21168;SDS011;10742;51.816;8.662;2022-09-09T13:11:06;7.10;;;1.58;;
21168;SDS011;10742;51.816;8.662;2022-09-09T13:14:33;8.98;;;1.90;;
21168;SDS011;10742;51.816;8.662;2022-09-09T13:17:58;4.68;;;2.05;;
21168;SDS011;10742;51.816;8.662;2022-09-09T13:21:32;6.20;;;2.47;;
21168;SDS011;10742;51.816;8.662;2022-09-09T13:25:17;3.25;;;2.10;;
21168;SDS011;10742;51.816;8.662;2022-09-09T13:28:46;3.42;;;1.80;;
21168;SDS011;10742;51.816;8.662;2022-09-09T13:32:17;5.45;;;1.73;;
21168;SDS011;10742;51.816;8.662;2022-09-09T13:35:49;5.78;;;1.60;;
21168;SDS011;10742;51.816;8.662;2022-09-09T13:39:15;4.18;;;1.55;;
21168;SDS011;10742;51.816;8.662;2022-09-09T13:42:39;6.18;;;1.70;;
21168;SDS011;10742;51.816;8.662;2022-09-09T13:46:22;2.58;;;1.55;;
21168;SDS011;10742;51.816;8.662;2022-09-09T13:53:45;4.28;;;1.98;;
21168;SDS011;10742;51.816;8.662;2022-09-09T13:57:17;3.05;;;1.50;;
21168;SDS011;10742;51.816;8.662;2022-09-09T14:00:39;4.55;;;1.50;;
21168;SDS011;10742;51.816;8.662;2022-09-09T14:04:00;4.13;;;1.50;;
21168;SDS011;10742;51.816;8.662;2022-09-09T14:07:21;3.25;;;1.23;;
21168;SDS011;10742;51.816;8.662;2022-09-09T14:10:42;3.53;;;1.17;;
21168;SDS011;10742;51.816;8.662;2022-09-09T14:14:03;1.95;;;1.13;;
21168;SDS011;10742;51.816;8.662;2022-09-09T14:17:23;2.55;;;1.30;;
21168;SDS011;10742;51.816;8.662;2022-09-09T14:20:45;2.17;;;1.20;;
21168;SDS011;10742;51.816;8.662;2022-09-09T14:24:06;2.22;;;1.00;;
21168;SDS011;10742;51.816;8.662;2022-09-09T14:27:27;1.60;;;0.88;;
21168;SDS011;10742;51.816;8.662;2022-09-09T14:30:48;2.20;;;1.08;;
21168;SDS011;10742;51.816;8.662;2022-09-09T14:34:09;2.42;;;1.20;;
21168;SDS011;10742;51.816;8.662;2022-09-09T14:37:31;2.20;;;1.35;;
21168;SDS011;10742;51.816;8.662;2022-09-09T14:40:52;5.28;;;1.20;;
21168;SDS011;10742;51.816;8.662;2022-09-09T14:44:13;2.15;;;1.30;;
21168;SDS011;10742;51.816;8.662;2022-09-09T14:47:35;3.22;;;1.20;;
21168;SDS011;10742;51.816;8.662;2022-09-09T14:50:57;2.72;;;1.23;;
21168;SDS011;10742;51.816;8.662;2022-09-09T14:54:24;3.15;;;1.00;;
21168;SDS011;10742;51.816;8.662;2022-09-09T14:57:45;2.75;;;1.17;;
21168;SDS011;10742;51.816;8.662;2022-09-09T15:01:07;1.75;;;1.00;;
21168;SDS011;10742;51.816;8.662;2022-09-09T15:04:31;7.38;;;2.65;;
21168;SDS011;10742;51.816;8.662;2022-09-09T15:07:52;6.70;;;1.80;;
21168;SDS011;10742;51.816;8.662;2022-09-09T15:11:13;4.65;;;1.52;;
21168;SDS011;10742;51.816;8.662;2022-09-09T15:14:34;18.90;;;4.15;;
21168;SDS011;10742;51.816;8.662;2022-09-09T15:17:55;7.25;;;2.33;;
21168;SDS011;10742;51.816;8.662;2022-09-09T15:21:18;5.97;;;1.90;;
21168;SDS011;10742;51.816;8.662;2022-09-09T15:24:41;2.08;;;1.23;;
21168;SDS011;10742;51.816;8.662;2022-09-09T15:28:02;3.22;;;1.35;;
21168;SDS011;10742;51.816;8.662;2022-09-09T15:31:24;5.65;;;1.70;;
21168;SDS011;10742;51.816;8.662;2022-09-09T15:34:47;3.95;;;1.38;;
21168;SDS011;10742;51.816;8.662;2022-09-09T15:38:08;4.15;;;1.20;;
21168;SDS011;10742;51.816;8.662;2022-09-09T15:41:30;4.07;;;1.48;;
21168;SDS011;10742;51.816;8.662;2022-09-09T15:44:54;12.32;;;3.40;;
21168;SDS011;10742;51.816;8.662;2022-09-09T15:48:16;5.70;;;2.22;;
21168;SDS011;10742;51.816;8.662;2022-09-09T15:51:37;5.00;;;2.03;;
21168;SDS011;10742;51.816;8.662;2022-09-09T15:55:04;5.97;;;1.52;;
21168;SDS011;10742;51.816;8.662;2022-09-09T15:58:29;6.40;;;1.75;;
21168;SDS011;10742;51.816;8.662;2022-09-09T16:01:52;6.90;;;1.95;;
21168;SDS011;10742;51.816;8.662;2022-09-09T16:05:13;3.35;;;1.75;;
21168;SDS011;10742;51.816;8.662;2022-09-09T16:08:38;5.47;;;2.28;;
21168;SDS011;10742;51.816;8.662;2022-09-09T16:12:00;8.30;;;2.67;;
21168;SDS011;10742;51.816;8.662;2022-09-09T16:15:26;11.05;;;2.28;;
21168;SDS011;10742;51.816;8.662;2022-09-09T16:18:48;6.22;;;2.85;;
21168;SDS011;10742;51.816;8.662;2022-09-09T16:22:30;5.70;;;3.45;;
21168;SDS011;10742;51.816;8.662;2022-09-09T16:25:54;9.38;;;3.42;;
21168;SDS011;10742;51.816;8.662;2022-09-09T16:29:17;8.50;;;4.50;;
21168;SDS011;10742;51.816;8.662;2022-09-09T16:32:38;15.05;;;6.47;;
21168;SDS011;10742;51.816;8.662;2022-09-09T16:36:06;20.55;;;9.77;;
21168;SDS011;10742;51.816;8.662;2022-09-09T16:39:32;34.22;;;20.38;;
21168;SDS011;10742;51.816;8.662;2022-09-09T16:42:53;177.82;;;78.82;;
21168;SDS011;10742;51.816;8.662;2022-09-09T16:46:16;387.35;;;173.90;;
21168;SDS011;10742;51.816;8.662;2022-09-09T16:49:38;254.15;;;124.15;;
21168;SDS011;10742;51.816;8.662;2022-09-09T16:52:59;242.88;;;113.28;;
21168;SDS011;10742;51.816;8.662;2022-09-09T16:56:24;461.05;;;209.32;;
21168;SDS011;10742;51.816;8.662;2022-09-09T16:59:46;308.40;;;127.78;;
21168;SDS011;10742;51.816;8.662;2022-09-09T17:03:12;430.48;;;192.85;;
21168;SDS011;10742;51.816;8.662;2022-09-09T17:06:33;615.30;;;254.77;;
21168;SDS011;10742;51.816;8.662;2022-09-09T17:09:55;532.88;;;202.57;;
21168;SDS011;10742;51.816;8.662;2022-09-09T17:13:16;631.25;;;252.52;;
21168;SDS011;10742;51.816;8.662;2022-09-09T17:16:39;490.08;;;193.88;;
21168;SDS011;10742;51.816;8.662;2022-09-09T17:20:00;916.35;;;322.10;;
21168;SDS011;10742;51.816;8.662;2022-09-09T17:23:23;1084.70;;;367.27;;
21168;SDS011;10742;51.816;8.662;2022-09-09T17:26:44;887.65;;;329.67;;
21168;SDS011;10742;51.816;8.662;2022-09-09T17:30:06;1448.70;;;450.27;;
21168;SDS011;10742;51.816;8.662;2022-09-09T17:33:28;883.88;;;320.85;;
21168;SDS011;10742;51.816;8.662;2022-09-09T17:36:51;1682.45;;;475.05;;
21168;SDS011;10742;51.816;8.662;2022-09-09T17:40:12;1888.78;;;554.33;;
21168;SDS011;10742;51.816;8.662;2022-09-09T17:43:34;1963.78;;;596.97;;
21168;SDS011;10742;51.816;8.662;2022-09-09T17:46:56;1114.60;;;378.83;;
21168;SDS011;10742;51.816;8.662;2022-09-09T17:50:17;1451.80;;;435.70;;
21168;SDS011;10742;51.816;8.662;2022-09-09T17:53:39;1853.53;;;522.75;;
21168;SDS011;10742;51.816;8.662;2022-09-09T17:57:02;1999.90;;;627.30;;
21168;SDS011;10742;51.816;8.662;2022-09-09T18:00:23;1999.90;;;573.95;;
21168;SDS011;10742;51.816;8.662;2022-09-09T18:03:44;1999.90;;;598.55;;
21168;SDS011;10742;51.816;8.662;2022-09-09T18:07:07;1959.07;;;562.33;;
21168;SDS011;10742;51.816;8.662;2022-09-09T18:10:28;1662.38;;;501.88;;
21168;SDS011;10742;51.816;8.662;2022-09-09T18:13:53;1999.90;;;602.17;;
21168;SDS011;10742;51.816;8.662;2022-09-09T18:17:17;1999.90;;;704.73;;
21168;SDS011;10742;51.816;8.662;2022-09-09T18:20:37;1999.90;;;695.40;;
21168;SDS011;10742;51.816;8.662;2022-09-09T18:24:00;1999.90;;;737.42;;
21168;SDS011;10742;51.816;8.662;2022-09-09T18:27:23;1999.90;;;732.20;;
21168;SDS011;10742;51.816;8.662;2022-09-09T18:30:44;1999.90;;;770.93;;
21168;SDS011;10742;51.816;8.662;2022-09-09T18:34:06;1999.90;;;772.57;;
21168;SDS011;10742;51.816;8.662;2022-09-09T18:37:29;1999.90;;;793.57;;
21168;SDS011;10742;51.816;8.662;2022-09-09T18:40:53;1999.90;;;802.13;;
21168;SDS011;10742;51.816;8.662;2022-09-09T18:44:15;1999.90;;;875.67;;
21168;SDS011;10742;51.816;8.662;2022-09-09T18:47:42;1999.90;;;872.47;;
21168;SDS011;10742;51.816;8.662;2022-09-09T18:51:05;1999.90;;;874.00;;
21168;SDS011;10742;51.816;8.662;2022-09-09T18:54:28;1999.90;;;925.13;;
21168;SDS011;10742;51.816;8.662;2022-09-09T18:57:50;1999.90;;;937.17;;
21168;SDS011;10742;51.816;8.662;2022-09-09T19:01:12;1999.90;;;937.27;;
21168;SDS011;10742;51.816;8.662;2022-09-09T19:04:33;1999.90;;;951.30;;
21168;SDS011;10742;51.816;8.662;2022-09-09T19:07:54;1999.90;;;907.73;;
21168;SDS011;10742;51.816;8.662;2022-09-09T19:11:17;1999.90;;;926.93;;
21168;SDS011;10742;51.816;8.662;2022-09-09T19:14:39;1999.90;;;951.27;;
21168;SDS011;10742;51.816;8.662;2022-09-09T19:18:00;1999.90;;;978.90;;
21168;SDS011;10742;51.816;8.662;2022-09-09T19:21:25;1999.90;;;999.90;;
21168;SDS011;10742;51.816;8.662;2022-09-09T19:24:48;1999.90;;;999.90;;
21168;SDS011;10742;51.816;8.662;2022-09-09T19:28:10;1999.90;;;995.17;;
21168;SDS011;10742;51.816;8.662;2022-09-09T19:31:31;1999.90;;;973.97;;
21168;SDS011;10742;51.816;8.662;2022-09-09T19:34:54;1999.90;;;994.73;;
21168;SDS011;10742;51.816;8.662;2022-09-09T19:38:16;1999.90;;;972.23;;
21168;SDS011;10742;51.816;8.662;2022-09-09T19:41:38;1999.90;;;976.83;;
21168;SDS011;10742;51.816;8.662;2022-09-09T19:44:59;1999.90;;;975.07;;
21168;SDS011;10742;51.816;8.662;2022-09-09T19:48:20;1999.90;;;993.57;;
21168;SDS011;10742;51.816;8.662;2022-09-09T19:51:41;1999.90;;;999.90;;
21168;SDS011;10742;51.816;8.662;2022-09-09T19:55:03;1999.90;;;999.90;;
21168;SDS011;10742;51.816;8.662;2022-09-09T19:58:24;1999.90;;;999.90;;
21168;SDS011;10742;51.816;8.662;2022-09-09T20:01:45;1999.90;;;999.90;;
21168;SDS011;10742;51.816;8.662;2022-09-09T20:05:06;1999.90;;;999.90;;
21168;SDS011;10742;51.816;8.662;2022-09-09T20:08:28;1999.90;;;999.90;;
21168;SDS011;10742;51.816;8.662;2022-09-09T20:11:49;1999.90;;;966.03;;
21168;SDS011;10742;51.816;8.662;2022-09-09T20:15:10;1999.90;;;994.30;;
21168;SDS011;10742;51.816;8.662;2022-09-09T20:18:33;1999.90;;;999.90;;
21168;SDS011;10742;51.816;8.662;2022-09-09T20:21:56;1999.90;;;986.47;;
21168;SDS011;10742;51.816;8.662;2022-09-09T20:25:18;1999.90;;;991.17;;
21168;SDS011;10742;51.816;8.662;2022-09-09T20:28:43;1999.90;;;976.23;;
21168;SDS011;10742;51.816;8.662;2022-09-09T20:32:05;1999.90;;;999.90;;
21168;SDS011;10742;51.816;8.662;2022-09-09T20:35:27;1999.90;;;999.90;;
21168;SDS011;10742;51.816;8.662;2022-09-09T20:38:52;1999.90;;;995.47;;
21168;SDS011;10742;51.816;8.662;2022-09-09T20:42:18;1999.90;;;996.33;;
21168;SDS011;10742;51.816;8.662;2022-09-09T20:45:39;1999.90;;;996.83;;
21168;SDS011;10742;51.816;8.662;2022-09-09T20:49:03;1999.90;;;986.67;;
21168;SDS011;10742;51.816;8.662;2022-09-09T20:52:26;1999.90;;;985.47;;
21168;SDS011;10742;51.816;8.662;2022-09-09T20:55:47;1999.90;;;999.90;;
21168;SDS011;10742;51.816;8.662;2022-09-09T20:59:11;1999.90;;;941.97;;
21168;SDS011;10742;51.816;8.662;2022-09-09T21:02:37;1999.90;;;916.40;;
21168;SDS011;10742;51.816;8.662;2022-09-09T21:05:58;1999.90;;;937.57;;
21168;SDS011;10742;51.816;8.662;2022-09-09T21:09:19;1999.90;;;941.87;;
21168;SDS011;10742;51.816;8.662;2022-09-09T21:12:43;1999.90;;;889.67;;
21168;SDS011;10742;51.816;8.662;2022-09-09T21:16:05;1999.90;;;888.93;;
21168;SDS011;10742;51.816;8.662;2022-09-09T21:19:28;1999.90;;;883.77;;
21168;SDS011;10742;51.816;8.662;2022-09-09T21:22:49;1999.90;;;889.23;;
21168;SDS011;10742;51.816;8.662;2022-09-09T21:26:10;1999.90;;;879.10;;
21168;SDS011;10742;51.816;8.662;2022-09-09T21:29:30;1999.90;;;922.83;;
21168;SDS011;10742;51.816;8.662;2022-09-09T21:32:51;1999.90;;;949.90;;